createdAt,value
2023-03-03T00:01:04.745Z,32.87
2023-03-03T00:03:32.785Z,35.20
2023-03-03T00:06:00.628Z,33.07
2023-03-03T00:08:28.408Z,35.30
2023-03-03T00:10:56.123Z,32.43
2023-03-03T00:13:27.056Z,33.33
2023-03-03T00:15:55.604Z,30.47
2023-03-03T00:18:28.032Z,31.40
2023-03-03T00:20:57.102Z,32.20
2023-03-03T00:23:30.386Z,31.13
2023-03-03T00:25:59.561Z,30.60
2023-03-03T00:28:30.802Z,28.50
2023-03-03T00:31:00.799Z,32.10
2023-03-03T00:33:32.568Z,35.50
2023-03-03T00:36:12.796Z,28.83
2023-03-03T00:38:40.993Z,29.77
2023-03-03T00:41:16.120Z,27.83
2023-03-03T00:43:45.161Z,28.37
2023-03-03T00:46:17.510Z,28.30
2023-03-03T00:48:45.239Z,29.63
2023-03-03T00:51:23.195Z,27.83
2023-03-03T00:53:51.524Z,30.53
2023-03-03T00:56:19.226Z,32.07
2023-03-03T00:58:48.587Z,29.87
2023-03-03T01:01:20.043Z,28.23
2023-03-03T01:03:52.439Z,29.37
2023-03-03T01:06:20.793Z,30.17
2023-03-03T01:08:48.897Z,29.63
2023-03-03T01:11:18.893Z,31.27
2023-03-03T01:13:49.259Z,30.00
2023-03-03T01:16:17.066Z,29.30
2023-03-03T01:18:44.895Z,29.87
2023-03-03T01:21:13.106Z,27.80
2023-03-03T01:23:41.363Z,29.53
2023-03-03T01:26:09.560Z,28.73
2023-03-03T01:28:37.225Z,31.60
2023-03-03T01:31:06.926Z,33.10
2023-03-03T01:33:35.822Z,33.67
2023-03-03T01:36:04.346Z,33.77
2023-03-03T01:38:32.022Z,30.50
2023-03-03T01:41:00.887Z,31.57
2023-03-03T01:43:31.019Z,28.53
2023-03-03T01:46:33.471Z,32.97
2023-03-03T01:49:04.603Z,29.70
2023-03-03T01:51:34.189Z,29.93
2023-03-03T01:54:03.304Z,29.60
2023-03-03T01:56:31.534Z,30.10
2023-03-03T01:59:01.889Z,28.37
2023-03-03T02:01:30.546Z,28.33
2023-03-03T02:04:01.527Z,29.13
2023-03-03T02:06:32.190Z,29.30
2023-03-03T02:09:01.644Z,30.53
2023-03-03T02:11:31.281Z,29.70
2023-03-03T02:14:00.118Z,29.13
2023-03-03T02:16:28.083Z,28.77
2023-03-03T02:18:56.350Z,27.70
2023-03-03T02:21:27.662Z,29.17
2023-03-03T02:24:02.710Z,28.87
2023-03-03T02:26:34.283Z,27.53
2023-03-03T02:29:07.456Z,27.63
2023-03-03T02:31:35.789Z,28.37
2023-03-03T02:34:03.832Z,28.53
2023-03-03T02:36:33.361Z,27.13
2023-03-03T02:39:05.951Z,26.77
2023-03-03T02:41:37.972Z,25.40
2023-03-03T02:44:09.048Z,26.27
2023-03-03T02:46:38.711Z,25.57
2023-03-03T02:49:08.138Z,27.17
2023-03-03T02:51:37.053Z,27.27
2023-03-03T02:54:06.416Z,26.53
2023-03-03T02:56:36.690Z,27.87
2023-03-03T02:59:05.481Z,26.50
2023-03-03T03:01:37.329Z,28.63
2023-03-03T03:04:10.908Z,27.60
2023-03-03T03:06:43.691Z,30.73
2023-03-03T03:09:13.594Z,29.07
2023-03-03T03:11:42.882Z,28.10
2023-03-03T03:14:12.985Z,28.97
2023-03-03T03:16:41.941Z,29.97
2023-03-03T03:19:09.878Z,32.07
2023-03-03T03:21:39.411Z,27.43
2023-03-03T03:24:08.956Z,29.53
2023-03-03T03:26:38.706Z,28.80
2023-03-03T03:29:08.426Z,30.67
2023-03-03T03:31:36.490Z,29.63
2023-03-03T03:34:04.708Z,30.00
2023-03-03T03:36:32.468Z,26.93
2023-03-03T03:39:02.764Z,29.00
2023-03-03T03:41:31.979Z,31.10
2023-03-03T03:43:59.894Z,30.27
2023-03-03T03:46:29.597Z,31.13
2023-03-03T03:48:57.359Z,27.33
2023-03-03T03:51:25.158Z,30.40
2023-03-03T03:53:53.442Z,27.83
2023-03-03T03:56:21.322Z,29.33
2023-03-03T03:58:52.946Z,28.63
2023-03-03T04:01:21.093Z,26.17
2023-03-03T04:03:51.623Z,30.73
2023-03-03T04:06:22.892Z,34.80
2023-03-03T04:08:51.083Z,26.93
2023-03-03T04:11:21.514Z,24.20
2023-03-03T04:13:49.479Z,25.23
2023-03-03T04:16:17.898Z,26.03
2023-03-03T04:18:46.855Z,46.23
2023-03-03T04:21:17.744Z,27.03
2023-03-03T04:23:47.861Z,31.37
2023-03-03T04:26:15.615Z,27.60
2023-03-03T04:28:46.200Z,28.53
2023-03-03T04:31:14.319Z,30.07
2023-03-03T04:33:42.243Z,28.17
2023-03-03T04:36:09.912Z,27.47
2023-03-03T04:38:40.117Z,26.70
2023-03-03T04:41:07.782Z,30.13
2023-03-03T04:43:38.569Z,30.27
2023-03-03T04:46:06.814Z,27.13
2023-03-03T04:48:35.444Z,29.53
2023-03-03T04:51:03.415Z,31.67
2023-03-03T04:53:32.536Z,31.10
2023-03-03T04:56:02.182Z,32.30
2023-03-03T04:58:30.117Z,30.27
2023-03-03T05:00:58.797Z,31.30
2023-03-03T05:03:28.994Z,29.80
2023-03-03T05:05:56.917Z,29.97
2023-03-03T05:08:24.869Z,30.27
2023-03-03T05:10:53.813Z,27.20
2023-03-03T05:13:25.289Z,30.37
2023-03-03T05:15:55.173Z,27.77
2023-03-03T05:18:23.727Z,28.20
2023-03-03T05:20:52.203Z,27.10
2023-03-03T05:23:21.048Z,28.30
2023-03-03T05:25:49.277Z,29.60
2023-03-03T05:28:18.065Z,30.90
2023-03-03T05:30:47.398Z,26.97
2023-03-03T05:33:16.389Z,27.00
2023-03-03T05:35:44.516Z,27.50
2023-03-03T05:38:12.338Z,26.10
2023-03-03T05:40:41.173Z,26.87
2023-03-03T05:43:09.045Z,27.87
2023-03-03T05:45:36.674Z,27.07
2023-03-03T05:48:06.268Z,27.23
2023-03-03T05:50:34.302Z,29.27
2023-03-03T05:53:02.020Z,27.77
2023-03-03T05:55:29.730Z,27.70
2023-03-03T05:57:57.399Z,30.53
2023-03-03T06:00:25.522Z,29.87
2023-03-03T06:02:53.279Z,31.57
2023-03-03T06:05:22.438Z,32.07
2023-03-03T06:07:50.215Z,30.60
2023-03-03T06:10:18.482Z,31.63
2023-03-03T06:12:49.821Z,30.70
2023-03-03T06:15:17.807Z,28.93
2023-03-03T06:17:46.045Z,29.70
2023-03-03T06:20:13.912Z,29.73
2023-03-03T06:22:43.163Z,29.47
2023-03-03T06:25:11.689Z,27.63
2023-03-03T06:27:39.356Z,28.30
2023-03-03T06:30:08.792Z,26.40
2023-03-03T06:32:36.730Z,28.70
2023-03-03T06:35:05.121Z,27.83
2023-03-03T06:37:32.884Z,28.13
2023-03-03T06:40:01.934Z,28.00
2023-03-03T06:42:30.116Z,24.80
2023-03-03T06:44:57.956Z,25.73
2023-03-03T06:47:25.763Z,25.50
2023-03-03T06:49:53.391Z,25.57
2023-03-03T06:52:24.115Z,28.87
2023-03-03T06:54:52.969Z,26.07
2023-03-03T06:57:27.827Z,27.17
2023-03-03T06:59:57.713Z,25.57
2023-03-03T07:02:25.485Z,25.63
2023-03-03T07:04:54.666Z,25.93
2023-03-03T07:07:24.601Z,26.40
2023-03-03T07:09:54.829Z,26.57
2023-03-03T07:12:25.129Z,27.97
2023-03-03T07:14:57.805Z,25.80
2023-03-03T07:17:26.590Z,26.97
2023-03-03T07:19:54.803Z,26.07
2023-03-03T07:22:25.651Z,24.23
2023-03-03T07:24:55.418Z,26.03
2023-03-03T07:27:26.944Z,25.37
2023-03-03T07:29:56.971Z,27.03
2023-03-03T07:32:28.440Z,25.47
2023-03-03T07:34:57.520Z,25.17
2023-03-03T07:37:32.684Z,26.53
2023-03-03T07:40:01.490Z,24.90
2023-03-03T07:42:36.139Z,25.47
2023-03-03T07:45:26.309Z,22.70
2023-03-03T07:47:58.126Z,22.87
2023-03-03T07:50:25.972Z,21.53
2023-03-03T07:52:56.705Z,23.57
2023-03-03T07:55:31.703Z,21.77
2023-03-03T07:58:16.941Z,23.77
2023-03-03T08:01:25.390Z,23.27
2023-03-03T08:03:53.893Z,20.70
2023-03-03T08:06:47.167Z,22.20
2023-03-03T08:09:37.710Z,22.77
2023-03-03T08:12:38.176Z,24.07
2023-03-03T08:15:24.836Z,22.70
2023-03-03T08:17:54.886Z,23.50
2023-03-03T08:20:42.624Z,21.50
2023-03-03T08:23:10.367Z,21.43
2023-03-03T08:25:38.054Z,21.87
2023-03-03T08:28:06.236Z,22.10
2023-03-03T08:30:35.360Z,22.90
2023-03-03T08:33:03.594Z,21.23
2023-03-03T08:35:31.347Z,25.27
2023-03-03T08:37:59.089Z,21.20
2023-03-03T08:40:26.738Z,19.87
2023-03-03T08:42:55.404Z,18.97
2023-03-03T08:45:23.349Z,20.07
2023-03-03T08:47:52.407Z,23.80
2023-03-03T08:50:20.167Z,20.50
2023-03-03T08:52:47.869Z,19.33
2023-03-03T08:55:15.825Z,20.33
2023-03-03T08:57:43.588Z,20.50
2023-03-03T09:00:13.475Z,20.03
2023-03-03T09:02:41.453Z,19.90
2023-03-03T09:05:11.970Z,18.50
2023-03-03T09:07:40.325Z,18.40
2023-03-03T09:10:10.105Z,19.30
2023-03-03T09:12:40.347Z,15.87
2023-03-03T09:15:18.887Z,19.07
2023-03-03T09:17:46.902Z,18.80
2023-03-03T09:20:33.452Z,19.13
2023-03-03T09:23:22.809Z,16.90
2023-03-03T09:25:51.403Z,18.60
2023-03-03T09:28:24.339Z,17.60
2023-03-03T09:30:53.907Z,20.30
2023-03-03T09:33:27.719Z,19.03
2023-03-03T09:36:02.504Z,19.77
2023-03-03T09:38:31.826Z,18.77
2023-03-03T09:41:30.904Z,19.13
2023-03-03T09:44:29.808Z,17.90
2023-03-03T09:47:10.772Z,18.50
2023-03-03T09:49:44.459Z,17.13
2023-03-03T09:52:22.369Z,20.93
2023-03-03T09:54:58.117Z,18.17
2023-03-03T09:57:31.591Z,17.33
2023-03-03T10:00:16.260Z,16.25
2023-03-03T10:02:56.103Z,15.85
2023-03-03T10:05:38.338Z,16.65
2023-03-03T10:08:23.244Z,16.88
2023-03-03T10:10:56.629Z,16.83
2023-03-03T10:13:36.463Z,17.17
2023-03-03T10:16:15.482Z,15.60
2023-03-03T10:18:49.529Z,16.88
2023-03-03T10:21:21.464Z,15.07
2023-03-03T10:24:00.489Z,16.47
2023-03-03T10:26:57.941Z,16.73
2023-03-03T10:29:41.264Z,16.50
2023-03-03T10:32:26.178Z,15.77
2023-03-03T10:35:15.196Z,17.00
2023-03-03T10:37:49.901Z,16.75
2023-03-03T10:40:24.032Z,16.10
2023-03-03T10:43:43.310Z,15.82
2023-03-03T10:46:25.817Z,14.65
2023-03-03T10:49:03.834Z,16.20
2023-03-03T10:51:35.362Z,15.02
2023-03-03T10:54:14.844Z,15.05
2023-03-03T10:56:53.351Z,15.35
2023-03-03T10:59:35.573Z,15.77
2023-03-03T11:02:06.842Z,15.90
2023-03-03T11:04:50.273Z,16.77
2023-03-03T11:07:23.429Z,18.20
2023-03-03T11:10:00.969Z,18.77
2023-03-03T11:12:35.998Z,17.60
2023-03-03T11:15:18.234Z,18.38
2023-03-03T11:17:56.048Z,18.05
2023-03-03T11:20:32.773Z,16.73
2023-03-03T11:23:05.355Z,17.42
2023-03-03T11:25:38.190Z,17.17
2023-03-03T11:28:18.955Z,15.23
2023-03-03T11:30:56.012Z,16.25
2023-03-03T11:33:28.837Z,15.48
2023-03-03T11:36:08.625Z,15.85
2023-03-03T11:38:56.189Z,15.02
2023-03-03T11:41:36.970Z,14.02
2023-03-03T11:44:13.208Z,15.20
2023-03-03T11:46:46.229Z,13.82
2023-03-03T11:49:19.645Z,14.02
2023-03-03T11:51:53.888Z,13.57
2023-03-03T11:54:25.303Z,12.77
2023-03-03T11:56:56.181Z,13.40
2023-03-03T11:59:40.558Z,13.15
2023-03-03T12:02:18.292Z,12.05
2023-03-03T12:04:49.895Z,11.98
2023-03-03T12:07:26.372Z,12.90
2023-03-03T12:10:04.474Z,13.15
2023-03-03T12:12:36.153Z,13.02
2023-03-03T12:15:16.000Z,12.02
2023-03-03T12:17:56.390Z,11.77
2023-03-03T12:20:27.574Z,10.93
2023-03-03T12:23:07.316Z,10.93
2023-03-03T12:25:38.423Z,10.60
2023-03-03T12:28:10.117Z,10.95
2023-03-03T12:31:12.058Z,10.05
2023-03-03T12:33:52.881Z,10.73
2023-03-03T12:36:32.448Z,9.32
2023-03-03T12:39:04.017Z,9.13
2023-03-03T12:41:36.163Z,8.27
2023-03-03T12:44:06.869Z,7.10
2023-03-03T12:46:45.807Z,7.63
2023-03-03T12:49:13.675Z,6.25
2023-03-03T12:51:51.307Z,6.50
2023-03-03T12:54:36.859Z,5.45
2023-03-03T12:57:13.444Z,5.60
2023-03-03T12:59:45.336Z,4.45
2023-03-03T13:02:36.350Z,4.50
2023-03-03T13:05:12.205Z,3.85
2023-03-03T13:07:46.095Z,3.53
2023-03-03T13:10:18.179Z,3.13
2023-03-03T13:12:51.686Z,2.92
2023-03-03T13:15:31.729Z,2.40
2023-03-03T13:18:16.602Z,2.30
2023-03-03T13:20:50.718Z,1.85
2023-03-03T13:23:27.498Z,2.28
2023-03-03T13:25:58.375Z,2.00
2023-03-03T13:28:32.125Z,1.77
2023-03-03T13:31:10.443Z,1.90
2023-03-03T13:33:40.914Z,2.47
2023-03-03T13:36:10.349Z,2.00
2023-03-03T13:38:42.483Z,2.13
2023-03-03T13:41:19.131Z,2.22
2023-03-03T13:43:49.740Z,1.98
2023-03-03T13:46:24.299Z,2.30
2023-03-03T13:49:04.166Z,2.33
2023-03-03T13:51:42.042Z,1.70
2023-03-03T13:54:17.763Z,2.08
2023-03-03T13:57:07.026Z,1.98
2023-03-03T13:59:43.360Z,1.85
2023-03-03T14:02:26.074Z,1.90
2023-03-03T14:05:00.912Z,2.10
2023-03-03T14:07:32.495Z,1.60
2023-03-03T14:10:04.876Z,1.70
2023-03-03T14:12:39.945Z,1.80
2023-03-03T14:15:17.605Z,1.88
2023-03-03T14:17:59.672Z,2.13
2023-03-03T14:20:31.946Z,2.03
2023-03-03T14:23:00.987Z,2.35
2023-03-03T14:25:59.631Z,1.90
2023-03-03T14:28:29.123Z,2.00
2023-03-03T14:30:57.902Z,2.65
2023-03-03T14:33:31.416Z,2.53
2023-03-03T14:36:13.871Z,2.40
2023-03-03T14:38:45.112Z,2.05
2023-03-03T14:41:16.945Z,2.17
2023-03-03T14:43:46.330Z,2.45
2023-03-03T14:46:36.718Z,1.83
2023-03-03T14:49:07.238Z,2.83
2023-03-03T14:51:43.834Z,2.83
2023-03-03T14:54:22.569Z,2.10
2023-03-03T14:56:59.673Z,2.17
2023-03-03T14:59:28.887Z,2.20
2023-03-03T15:02:21.828Z,2.58
2023-03-03T15:04:50.040Z,2.70
2023-03-03T15:07:32.684Z,3.00
2023-03-03T15:10:00.628Z,2.42
2023-03-03T15:12:37.017Z,2.92
2023-03-03T15:15:18.321Z,2.20
2023-03-03T15:17:56.387Z,2.55
2023-03-03T15:20:32.693Z,2.70
2023-03-03T15:23:40.961Z,3.88
2023-03-03T15:26:11.803Z,2.88
2023-03-03T15:28:51.611Z,2.90
2023-03-03T15:31:27.667Z,2.67
2023-03-03T15:34:03.702Z,3.80
2023-03-03T15:36:37.765Z,4.03
2023-03-03T15:39:14.560Z,3.63
2023-03-03T15:41:46.548Z,3.78
2023-03-03T15:44:18.034Z,3.75
2023-03-03T15:47:06.268Z,3.22
2023-03-03T15:49:57.608Z,3.85
2023-03-03T15:52:34.750Z,3.75
2023-03-03T15:55:15.847Z,3.78
2023-03-03T15:57:50.082Z,3.08
2023-03-03T16:00:38.807Z,3.00
2023-03-03T16:03:13.621Z,2.60
2023-03-03T16:05:47.418Z,3.72
2023-03-03T16:08:18.202Z,3.97
2023-03-03T16:10:57.227Z,2.95
2023-03-03T16:13:35.643Z,3.35
2023-03-03T16:16:12.624Z,3.85
2023-03-03T16:18:50.270Z,3.33
2023-03-03T16:21:24.225Z,3.35
2023-03-03T16:23:53.405Z,2.92
2023-03-03T16:26:34.893Z,3.33
2023-03-03T16:29:12.725Z,3.45
2023-03-03T16:31:44.919Z,3.97
2023-03-03T16:34:17.023Z,3.63
2023-03-03T16:36:56.113Z,3.60
2023-03-03T16:39:33.254Z,3.35
2023-03-03T16:42:05.140Z,3.10
2023-03-03T16:44:41.211Z,3.55
2023-03-03T16:47:18.871Z,3.47
2023-03-03T16:49:51.583Z,4.07
2023-03-03T16:52:24.523Z,3.28
2023-03-03T16:54:56.687Z,3.50
2023-03-03T16:57:32.505Z,3.20
2023-03-03T17:00:06.853Z,3.17
2023-03-03T17:03:10.434Z,3.67
2023-03-03T17:05:44.683Z,4.00
2023-03-03T17:08:23.120Z,3.88
2023-03-03T17:10:53.407Z,3.58
2023-03-03T17:13:34.302Z,3.58
2023-03-03T17:16:08.423Z,3.35
2023-03-03T17:18:51.283Z,3.47
2023-03-03T17:21:27.353Z,3.33
2023-03-03T17:24:02.018Z,2.78
2023-03-03T17:26:37.602Z,3.20
2023-03-03T17:29:18.417Z,3.70
2023-03-03T17:31:50.950Z,3.42
2023-03-03T17:34:36.051Z,3.10
2023-03-03T17:37:13.104Z,3.33
2023-03-03T17:39:51.807Z,3.88
2023-03-03T17:42:24.077Z,5.03
2023-03-03T17:45:01.998Z,3.95
2023-03-03T17:47:42.466Z,3.40
2023-03-03T17:50:38.327Z,3.55
2023-03-03T17:53:36.076Z,3.67
2023-03-03T17:56:17.695Z,3.70
2023-03-03T17:58:55.482Z,3.95
2023-03-03T18:01:35.281Z,3.70
2023-03-03T18:04:22.301Z,4.55
2023-03-03T18:07:08.893Z,4.45
2023-03-03T18:09:48.376Z,3.67
2023-03-03T18:12:21.347Z,3.42
2023-03-03T18:14:59.263Z,4.07
2023-03-03T18:17:36.933Z,4.45
2023-03-03T18:20:18.785Z,4.13
2023-03-03T18:22:47.404Z,4.20
2023-03-03T18:25:16.506Z,4.13
2023-03-03T18:27:45.502Z,3.80
2023-03-03T18:30:33.487Z,4.50
2023-03-03T18:33:09.293Z,3.78
2023-03-03T18:35:38.579Z,3.55
2023-03-03T18:38:30.889Z,4.15
2023-03-03T18:41:11.391Z,4.25
2023-03-03T18:43:52.061Z,4.45
2023-03-03T18:46:46.765Z,6.13
2023-03-03T18:49:16.857Z,5.00
2023-03-03T18:51:52.639Z,5.28
2023-03-03T18:54:30.972Z,5.80
2023-03-03T18:57:19.368Z,6.68
2023-03-03T18:59:55.865Z,6.40
2023-03-03T19:02:35.780Z,7.72
2023-03-03T19:05:18.854Z,5.97
2023-03-03T19:07:53.200Z,5.28
2023-03-03T19:10:48.308Z,4.97
2023-03-03T19:13:42.162Z,5.57
2023-03-03T19:16:11.466Z,5.60
2023-03-03T19:19:01.067Z,5.20
2023-03-03T19:21:32.171Z,4.22
2023-03-03T19:24:01.235Z,6.22
2023-03-03T19:26:47.989Z,4.38
2023-03-03T19:29:31.490Z,4.53
2023-03-03T19:32:07.632Z,4.45
2023-03-03T19:34:41.075Z,4.35
2023-03-03T19:37:21.180Z,3.97
2023-03-03T19:40:00.784Z,4.78
2023-03-03T19:42:44.837Z,5.20
2023-03-03T19:45:30.425Z,4.15
2023-03-03T19:48:06.027Z,4.45
2023-03-03T19:50:41.600Z,3.65
2023-03-03T19:53:18.325Z,3.83
2023-03-03T19:55:57.123Z,4.60
2023-03-03T19:58:31.370Z,4.68
2023-03-03T20:01:08.312Z,4.78
2023-03-03T20:04:09.489Z,4.88
2023-03-03T20:06:46.797Z,5.60
2023-03-03T20:09:27.934Z,5.28
2023-03-03T20:12:11.972Z,6.22
2023-03-03T20:14:54.094Z,6.90
2023-03-03T20:17:35.199Z,4.68
2023-03-03T20:20:06.980Z,6.72
2023-03-03T20:22:42.369Z,6.13
2023-03-03T20:25:24.353Z,5.97
2023-03-03T20:28:00.344Z,5.90
2023-03-03T20:30:42.245Z,5.80
2023-03-03T20:33:22.124Z,5.55
2023-03-03T20:35:56.131Z,5.50
2023-03-03T20:38:30.161Z,6.72
2023-03-03T20:41:05.368Z,6.28
2023-03-03T20:43:45.012Z,5.05
2023-03-03T20:46:20.411Z,5.32
2023-03-03T20:48:59.475Z,5.50
2023-03-03T20:51:32.021Z,4.63
2023-03-03T20:54:06.693Z,5.28
2023-03-03T20:56:39.614Z,4.90
2023-03-03T20:59:17.518Z,4.93
2023-03-03T21:01:53.089Z,4.70
2023-03-03T21:04:23.800Z,5.07
2023-03-03T21:06:52.439Z,4.72
2023-03-03T21:09:28.813Z,4.63
2023-03-03T21:11:59.063Z,4.50
2023-03-03T21:14:28.825Z,5.05
2023-03-03T21:16:58.383Z,3.53
2023-03-03T21:19:29.130Z,4.65
2023-03-03T21:21:58.305Z,4.10
2023-03-03T21:24:49.066Z,4.97
2023-03-03T21:27:29.949Z,4.15
2023-03-03T21:30:06.689Z,3.90
2023-03-03T21:32:40.348Z,4.03
2023-03-03T21:35:09.482Z,5.47
2023-03-03T21:37:47.663Z,3.33
2023-03-03T21:40:20.613Z,5.05
2023-03-03T21:42:50.189Z,3.33
2023-03-03T21:45:20.671Z,3.00
2023-03-03T21:47:48.917Z,4.35
2023-03-03T21:50:17.536Z,3.55
2023-03-03T21:52:45.345Z,4.35
2023-03-03T21:55:13.076Z,3.90
2023-03-03T21:57:40.831Z,3.90
2023-03-03T22:00:11.365Z,3.42
2023-03-03T22:02:39.162Z,3.70
2023-03-03T22:05:08.107Z,3.00
2023-03-03T22:07:36.092Z,2.97
2023-03-03T22:10:03.943Z,4.40
2023-03-03T22:12:31.595Z,3.67
2023-03-03T22:14:59.307Z,3.60
2023-03-03T22:17:28.466Z,2.92
2023-03-03T22:19:56.119Z,3.40
2023-03-03T22:22:24.412Z,3.35
2023-03-03T22:24:53.724Z,3.78
2023-03-03T22:27:21.612Z,3.05
2023-03-03T22:29:49.357Z,4.38
2023-03-03T22:32:17.056Z,3.25
2023-03-03T22:34:46.500Z,3.25
2023-03-03T22:37:14.537Z,3.33
2023-03-03T22:39:42.554Z,2.50
2023-03-03T22:42:11.055Z,2.83
2023-03-03T22:44:38.740Z,3.03
2023-03-03T22:47:06.512Z,3.08
2023-03-03T22:49:35.017Z,3.55
2023-03-03T22:52:04.469Z,2.67
2023-03-03T22:54:32.184Z,3.72
2023-03-03T22:57:00.181Z,3.17
2023-03-03T22:59:28.031Z,2.70
2023-03-03T23:01:56.105Z,3.45
2023-03-03T23:04:24.062Z,2.83
2023-03-03T23:06:51.746Z,2.42
2023-03-03T23:09:20.940Z,3.03
2023-03-03T23:11:48.660Z,2.40
2023-03-03T23:14:16.304Z,2.22
2023-03-03T23:16:45.426Z,2.47
2023-03-03T23:19:13.406Z,2.63
2023-03-03T23:21:41.143Z,2.30
2023-03-03T23:24:10.970Z,1.67
2023-03-03T23:26:40.066Z,3.08
2023-03-03T23:29:07.825Z,1.90
2023-03-03T23:31:35.546Z,1.73
2023-03-03T23:34:03.278Z,2.42
2023-03-03T23:36:30.915Z,2.05
2023-03-03T23:38:58.755Z,1.48
2023-03-03T23:41:26.866Z,1.88
2023-03-03T23:43:55.899Z,1.52
2023-03-03T23:46:23.584Z,2.00
2023-03-03T23:48:51.306Z,1.80
2023-03-03T23:51:19.048Z,1.50
2023-03-03T23:53:47.020Z,1.60
2023-03-03T23:56:14.817Z,2.45
2023-03-03T23:58:42.425Z,1.73
